<?xml version="1.0" encoding="UTF-8" standalone="no" ?>
<gpx xmlns="http://www.topografix.com/GPX/1/1" xmlns:xsi="http://www.w3.org/2001/XMLSchema-instance" xsi:schemaLocation="http://www.topografix.com/GPX/1/1 http://www.topografix.com/GPX/1/1/gpx.xsd" version="1.1" creator="VisuGPX - https://www.visugpx.com">
  <metadata>
    <name>12097365-Bourgneuf pornic  (entre les gares)</name>
  </metadata>
  <trk>
    <name><![CDATA[12097365-Bourgneuf pornic  (entre les gares)]]></name>
    <trkseg>
      <trkpt lat="47.04702" lon="-1.95512">
        <ele>5</ele>
        <time>2020-10-25T10:38:28Z</time>
      </trkpt>
      <trkpt lat="47.04708" lon="-1.95633">
        <ele>6</ele>
        <time>2020-10-25T10:40:18Z</time>
      </trkpt>
      <trkpt lat="47.04731" lon="-1.95703">
        <ele>7</ele>
        <time>2020-10-25T10:41:29Z</time>
      </trkpt>
      <trkpt lat="47.04683" lon="-1.95773">
        <ele>6</ele>
        <time>2020-10-25T10:42:59Z</time>
      </trkpt>
      <trkpt lat="47.0446" lon="-1.95682">
        <ele>3</ele>
        <time>2020-10-25T10:48:08Z</time>
      </trkpt>
      <trkpt lat="47.04344" lon="-1.95797">
        <ele>2</ele>
        <time>2020-10-25T10:51:15Z</time>
      </trkpt>
      <trkpt lat="47.04298" lon="-1.95767">
        <ele>2</ele>
        <time>2020-10-25T10:52:22Z</time>
      </trkpt>
      <trkpt lat="47.04195" lon="-1.95782">
        <ele>1</ele>
        <time>2020-10-25T10:54:40Z</time>
      </trkpt>
      <trkpt lat="47.04121" lon="-1.9573">
        <ele>1</ele>
        <time>2020-10-25T10:56:30Z</time>
      </trkpt>
      <trkpt lat="47.04034" lon="-1.95752">
        <ele>1</ele>
        <time>2020-10-25T10:58:28Z</time>
      </trkpt>
      <trkpt lat="47.03997" lon="-1.95846">
        <ele>1</ele>
        <time>2020-10-25T11:00:06Z</time>
      </trkpt>
      <trkpt lat="47.03856" lon="-1.95964">
        <ele>1</ele>
        <time>2020-10-25T11:03:43Z</time>
      </trkpt>
      <trkpt lat="47.03763" lon="-1.96113">
        <ele>3</ele>
        <time>2020-10-25T11:06:47Z</time>
      </trkpt>
      <trkpt lat="47.03686" lon="-1.96295">
        <ele>3</ele>
        <time>2020-10-25T11:10:01Z</time>
      </trkpt>
      <trkpt lat="47.03609" lon="-1.96252">
        <ele>2.1</ele>
        <time>2020-10-25T11:11:51Z</time>
      </trkpt>
      <trkpt lat="47.03448" lon="-1.96535">
        <ele>3.1</ele>
        <time>2020-10-25T11:17:27Z</time>
      </trkpt>
      <trkpt lat="47.03432" lon="-1.97008">
        <ele>1</ele>
        <time>2020-10-25T11:24:37Z</time>
      </trkpt>
      <trkpt lat="47.0343" lon="-1.97117">
        <ele>1</ele>
        <time>2020-10-25T11:26:17Z</time>
      </trkpt>
      <trkpt lat="47.03363" lon="-1.97146">
        <ele>1</ele>
        <time>2020-10-25T11:27:50Z</time>
      </trkpt>
      <trkpt lat="47.0323" lon="-1.9717">
        <ele>3.5</ele>
        <time>2020-10-25T11:30:49Z</time>
      </trkpt>
      <trkpt lat="47.03047" lon="-1.97204">
        <ele>1</ele>
        <time>2020-10-25T11:34:55Z</time>
      </trkpt>
      <trkpt lat="47.02946" lon="-1.97241">
        <ele>1</ele>
        <time>2020-10-25T11:37:14Z</time>
      </trkpt>
      <trkpt lat="47.02911" lon="-1.97325">
        <ele>1</ele>
        <time>2020-10-25T11:38:43Z</time>
      </trkpt>
      <trkpt lat="47.0291" lon="-1.97636">
        <ele>1</ele>
        <time>2020-10-25T11:43:26Z</time>
      </trkpt>
      <trkpt lat="47.02954" lon="-1.98272">
        <ele>1</ele>
        <time>2020-10-25T11:53:08Z</time>
      </trkpt>
      <trkpt lat="47.03079" lon="-1.98255">
        <ele>4</ele>
        <time>2020-10-25T11:55:55Z</time>
      </trkpt>
      <trkpt lat="47.031" lon="-1.98282">
        <ele>4</ele>
        <time>2020-10-25T11:56:32Z</time>
      </trkpt>
      <trkpt lat="47.03544" lon="-1.98577">
        <ele>2</ele>
        <time>2020-10-25T12:07:23Z</time>
      </trkpt>
      <trkpt lat="47.03702" lon="-1.98636">
        <ele>2</ele>
        <time>2020-10-25T12:11:00Z</time>
      </trkpt>
      <trkpt lat="47.03838" lon="-1.98728">
        <ele>2</ele>
        <time>2020-10-25T12:14:20Z</time>
      </trkpt>
      <trkpt lat="47.03971" lon="-1.98797">
        <ele>2</ele>
        <time>2020-10-25T12:17:29Z</time>
      </trkpt>
      <trkpt lat="47.04077" lon="-1.98828">
        <ele>3</ele>
        <time>2020-10-25T12:19:53Z</time>
      </trkpt>
      <trkpt lat="47.04295" lon="-1.9904">
        <ele>3</ele>
        <time>2020-10-25T12:25:42Z</time>
      </trkpt>
      <trkpt lat="47.04458" lon="-1.99204">
        <ele>1</ele>
        <time>2020-10-25T12:30:05Z</time>
      </trkpt>
      <trkpt lat="47.04739" lon="-1.99388">
        <ele>2</ele>
        <time>2020-10-25T12:36:56Z</time>
      </trkpt>
      <trkpt lat="47.04863" lon="-1.99462">
        <ele>1</ele>
        <time>2020-10-25T12:39:55Z</time>
      </trkpt>
      <trkpt lat="47.05108" lon="-1.99593">
        <ele>2</ele>
        <time>2020-10-25T12:45:43Z</time>
      </trkpt>
      <trkpt lat="47.0547" lon="-1.9983">
        <ele>2</ele>
        <time>2020-10-25T12:54:32Z</time>
      </trkpt>
      <trkpt lat="47.05625" lon="-1.99931">
        <ele>2</ele>
        <time>2020-10-25T12:58:18Z</time>
      </trkpt>
      <trkpt lat="47.05653" lon="-2.001">
        <ele>1</ele>
        <time>2020-10-25T13:00:56Z</time>
      </trkpt>
      <trkpt lat="47.05892" lon="-2.00243">
        <ele>2</ele>
        <time>2020-10-25T13:06:40Z</time>
      </trkpt>
      <trkpt lat="47.0608" lon="-2.00389">
        <ele>2</ele>
        <time>2020-10-25T13:11:24Z</time>
      </trkpt>
      <trkpt lat="47.06237" lon="-2.00627">
        <ele>4</ele>
        <time>2020-10-25T13:16:25Z</time>
      </trkpt>
      <trkpt lat="47.06327" lon="-2.0077">
        <ele>3</ele>
        <time>2020-10-25T13:19:22Z</time>
      </trkpt>
      <trkpt lat="47.06355" lon="-2.01051">
        <ele>2</ele>
        <time>2020-10-25T13:23:41Z</time>
      </trkpt>
      <trkpt lat="47.06454" lon="-2.01262">
        <ele>2</ele>
        <time>2020-10-25T13:27:34Z</time>
      </trkpt>
      <trkpt lat="47.06476" lon="-2.01382">
        <ele>2</ele>
        <time>2020-10-25T13:29:26Z</time>
      </trkpt>
      <trkpt lat="47.06605" lon="-2.01513">
        <ele>3</ele>
        <time>2020-10-25T13:32:56Z</time>
      </trkpt>
      <trkpt lat="47.06756" lon="-2.01827">
        <ele>3</ele>
        <time>2020-10-25T13:38:45Z</time>
      </trkpt>
      <trkpt lat="47.06972" lon="-2.02192">
        <ele>4</ele>
        <time>2020-10-25T13:46:05Z</time>
      </trkpt>
      <trkpt lat="47.06993" lon="-2.02296">
        <ele>4</ele>
        <time>2020-10-25T13:47:43Z</time>
      </trkpt>
      <trkpt lat="47.07012" lon="-2.02504">
        <ele>3</ele>
        <time>2020-10-25T13:50:54Z</time>
      </trkpt>
      <trkpt lat="47.07096" lon="-2.0282">
        <ele>2</ele>
        <time>2020-10-25T13:56:02Z</time>
      </trkpt>
      <trkpt lat="47.07208" lon="-2.02991">
        <ele>2</ele>
        <time>2020-10-25T13:59:38Z</time>
      </trkpt>
      <trkpt lat="47.07288" lon="-2.03126">
        <ele>3</ele>
        <time>2020-10-25T14:02:21Z</time>
      </trkpt>
      <trkpt lat="47.07372" lon="-2.03271">
        <ele>2</ele>
        <time>2020-10-25T14:05:14Z</time>
      </trkpt>
      <trkpt lat="47.07526" lon="-2.0341">
        <ele>3</ele>
        <time>2020-10-25T14:09:15Z</time>
      </trkpt>
      <trkpt lat="47.07644" lon="-2.03579">
        <ele>2</ele>
        <time>2020-10-25T14:12:55Z</time>
      </trkpt>
      <trkpt lat="47.07759" lon="-2.03619">
        <ele>5</ele>
        <time>2020-10-25T14:15:32Z</time>
      </trkpt>
      <trkpt lat="47.0785" lon="-2.03751">
        <ele>5</ele>
        <time>2020-10-25T14:18:23Z</time>
      </trkpt>
      <trkpt lat="47.07952" lon="-2.03971">
        <ele>4</ele>
        <time>2020-10-25T14:22:25Z</time>
      </trkpt>
      <trkpt lat="47.08093" lon="-2.04155">
        <ele>3</ele>
        <time>2020-10-25T14:26:37Z</time>
      </trkpt>
      <trkpt lat="47.0829" lon="-2.04272">
        <ele>5</ele>
        <time>2020-10-25T14:31:20Z</time>
      </trkpt>
      <trkpt lat="47.08355" lon="-2.0427">
        <ele>8</ele>
        <time>2020-10-25T14:32:47Z</time>
      </trkpt>
      <trkpt lat="47.08393" lon="-2.0444">
        <ele>6</ele>
        <time>2020-10-25T14:35:30Z</time>
      </trkpt>
      <trkpt lat="47.08489" lon="-2.04638">
        <ele>3</ele>
        <time>2020-10-25T14:39:11Z</time>
      </trkpt>
      <trkpt lat="47.08606" lon="-2.04741">
        <ele>8</ele>
        <time>2020-10-25T14:42:13Z</time>
      </trkpt>
      <trkpt lat="47.08634" lon="-2.04886">
        <ele>5</ele>
        <time>2020-10-25T14:44:30Z</time>
      </trkpt>
      <trkpt lat="47.08769" lon="-2.04961">
        <ele>7</ele>
        <time>2020-10-25T14:47:42Z</time>
      </trkpt>
      <trkpt lat="47.0884" lon="-2.05039">
        <ele>7</ele>
        <time>2020-10-25T14:49:40Z</time>
      </trkpt>
      <trkpt lat="47.08935" lon="-2.05104">
        <ele>8</ele>
        <time>2020-10-25T14:52:00Z</time>
      </trkpt>
      <trkpt lat="47.08974" lon="-2.05118">
        <ele>9</ele>
        <time>2020-10-25T14:52:54Z</time>
      </trkpt>
      <trkpt lat="47.09097" lon="-2.05153">
        <ele>7</ele>
        <time>2020-10-25T14:55:41Z</time>
      </trkpt>
      <trkpt lat="47.09282" lon="-2.05257">
        <ele>5</ele>
        <time>2020-10-25T15:00:05Z</time>
      </trkpt>
      <trkpt lat="47.09431" lon="-2.05335">
        <ele>5</ele>
        <time>2020-10-25T15:03:37Z</time>
      </trkpt>
      <trkpt lat="47.0952" lon="-2.05454">
        <ele>8</ele>
        <time>2020-10-25T15:06:17Z</time>
      </trkpt>
      <trkpt lat="47.09593" lon="-2.05518">
        <ele>18</ele>
        <time>2020-10-25T15:08:11Z</time>
      </trkpt>
      <trkpt lat="47.09615" lon="-2.05606">
        <ele>20</ele>
        <time>2020-10-25T15:09:36Z</time>
      </trkpt>
      <trkpt lat="47.09584" lon="-2.0568">
        <ele>12</ele>
        <time>2020-10-25T15:10:55Z</time>
      </trkpt>
      <trkpt lat="47.09594" lon="-2.05725">
        <ele>15</ele>
        <time>2020-10-25T15:11:38Z</time>
      </trkpt>
      <trkpt lat="47.09589" lon="-2.05786">
        <ele>15</ele>
        <time>2020-10-25T15:12:33Z</time>
      </trkpt>
      <trkpt lat="47.09571" lon="-2.05844">
        <ele>12</ele>
        <time>2020-10-25T15:13:31Z</time>
      </trkpt>
      <trkpt lat="47.09579" lon="-2.05876">
        <ele>13</ele>
        <time>2020-10-25T15:14:02Z</time>
      </trkpt>
      <trkpt lat="47.09589" lon="-2.05912">
        <ele>14</ele>
        <time>2020-10-25T15:14:38Z</time>
      </trkpt>
      <trkpt lat="47.09598" lon="-2.05932">
        <ele>15</ele>
        <time>2020-10-25T15:14:59Z</time>
      </trkpt>
      <trkpt lat="47.09605" lon="-2.05983">
        <ele>13</ele>
        <time>2020-10-25T15:15:47Z</time>
      </trkpt>
      <trkpt lat="47.09608" lon="-2.06019">
        <ele>11</ele>
        <time>2020-10-25T15:16:20Z</time>
      </trkpt>
      <trkpt lat="47.09616" lon="-2.06064">
        <ele>11</ele>
        <time>2020-10-25T15:17:02Z</time>
      </trkpt>
      <trkpt lat="47.09619" lon="-2.06084">
        <ele>10</ele>
        <time>2020-10-25T15:17:21Z</time>
      </trkpt>
      <trkpt lat="47.09662" lon="-2.06156">
        <ele>12</ele>
        <time>2020-10-25T15:18:48Z</time>
      </trkpt>
      <trkpt lat="47.09691" lon="-2.06174">
        <ele>17</ele>
        <time>2020-10-25T15:19:30Z</time>
      </trkpt>
      <trkpt lat="47.09668" lon="-2.06226">
        <ele>8</ele>
        <time>2020-10-25T15:20:26Z</time>
      </trkpt>
      <trkpt lat="47.09701" lon="-2.06239">
        <ele>14</ele>
        <time>2020-10-25T15:21:11Z</time>
      </trkpt>
      <trkpt lat="47.09708" lon="-2.06317">
        <ele>11</ele>
        <time>2020-10-25T15:22:23Z</time>
      </trkpt>
      <trkpt lat="47.09747" lon="-2.06394">
        <ele>13</ele>
        <time>2020-10-25T15:23:50Z</time>
      </trkpt>
      <trkpt lat="47.09762" lon="-2.06582">
        <ele>10</ele>
        <time>2020-10-25T15:26:42Z</time>
      </trkpt>
      <trkpt lat="47.09808" lon="-2.06683">
        <ele>14</ele>
        <time>2020-10-25T15:28:32Z</time>
      </trkpt>
      <trkpt lat="47.09818" lon="-2.06773">
        <ele>10</ele>
        <time>2020-10-25T15:29:55Z</time>
      </trkpt>
      <trkpt lat="47.09858" lon="-2.06807">
        <ele>13</ele>
        <time>2020-10-25T15:30:57Z</time>
      </trkpt>
      <trkpt lat="47.09862" lon="-2.06896">
        <ele>9</ele>
        <time>2020-10-25T15:32:18Z</time>
      </trkpt>
      <trkpt lat="47.09885" lon="-2.06984">
        <ele>9</ele>
        <time>2020-10-25T15:33:44Z</time>
      </trkpt>
      <trkpt lat="47.09891" lon="-2.07042">
        <ele>7</ele>
        <time>2020-10-25T15:34:37Z</time>
      </trkpt>
      <trkpt lat="47.09947" lon="-2.07118">
        <ele>8</ele>
        <time>2020-10-25T15:36:19Z</time>
      </trkpt>
      <trkpt lat="47.0999" lon="-2.07168">
        <ele>7</ele>
        <time>2020-10-25T15:37:32Z</time>
      </trkpt>
      <trkpt lat="47.10074" lon="-2.07208">
        <ele>12</ele>
        <time>2020-10-25T15:39:30Z</time>
      </trkpt>
      <trkpt lat="47.10105" lon="-2.07258">
        <ele>10</ele>
        <time>2020-10-25T15:40:31Z</time>
      </trkpt>
      <trkpt lat="47.1012" lon="-2.07302">
        <ele>11</ele>
        <time>2020-10-25T15:41:16Z</time>
      </trkpt>
      <trkpt lat="47.10149" lon="-2.07332">
        <ele>14</ele>
        <time>2020-10-25T15:42:03Z</time>
      </trkpt>
      <trkpt lat="47.10132" lon="-2.07381">
        <ele>10</ele>
        <time>2020-10-25T15:42:53Z</time>
      </trkpt>
      <trkpt lat="47.10147" lon="-2.07428">
        <ele>10</ele>
        <time>2020-10-25T15:43:40Z</time>
      </trkpt>
      <trkpt lat="47.10162" lon="-2.07471">
        <ele>12</ele>
        <time>2020-10-25T15:44:24Z</time>
      </trkpt>
      <trkpt lat="47.10142" lon="-2.07529">
        <ele>8</ele>
        <time>2020-10-25T15:45:23Z</time>
      </trkpt>
      <trkpt lat="47.10124" lon="-2.07608">
        <ele>5</ele>
        <time>2020-10-25T15:46:39Z</time>
      </trkpt>
      <trkpt lat="47.10143" lon="-2.07664">
        <ele>6</ele>
        <time>2020-10-25T15:47:36Z</time>
      </trkpt>
      <trkpt lat="47.10124" lon="-2.07688">
        <ele>4</ele>
        <time>2020-10-25T15:48:09Z</time>
      </trkpt>
      <trkpt lat="47.10141" lon="-2.07742">
        <ele>5</ele>
        <time>2020-10-25T15:49:03Z</time>
      </trkpt>
      <trkpt lat="47.10153" lon="-2.07785">
        <ele>5</ele>
        <time>2020-10-25T15:49:45Z</time>
      </trkpt>
      <trkpt lat="47.10158" lon="-2.07827">
        <ele>5</ele>
        <time>2020-10-25T15:50:24Z</time>
      </trkpt>
      <trkpt lat="47.1017" lon="-2.07857">
        <ele>5</ele>
        <time>2020-10-25T15:50:56Z</time>
      </trkpt>
      <trkpt lat="47.10168" lon="-2.07901">
        <ele>5</ele>
        <time>2020-10-25T15:51:36Z</time>
      </trkpt>
      <trkpt lat="47.10138" lon="-2.07906">
        <ele>3</ele>
        <time>2020-10-25T15:52:16Z</time>
      </trkpt>
      <trkpt lat="47.10154" lon="-2.07933">
        <ele>4</ele>
        <time>2020-10-25T15:52:49Z</time>
      </trkpt>
      <trkpt lat="47.10135" lon="-2.07966">
        <ele>4</ele>
        <time>2020-10-25T15:53:28Z</time>
      </trkpt>
      <trkpt lat="47.10159" lon="-2.0798">
        <ele>5</ele>
        <time>2020-10-25T15:54:02Z</time>
      </trkpt>
      <trkpt lat="47.10152" lon="-2.0802">
        <ele>4</ele>
        <time>2020-10-25T15:54:40Z</time>
      </trkpt>
      <trkpt lat="47.10175" lon="-2.08119">
        <ele>3</ele>
        <time>2020-10-25T15:56:15Z</time>
      </trkpt>
      <trkpt lat="47.10226" lon="-2.08177">
        <ele>6</ele>
        <time>2020-10-25T15:57:41Z</time>
      </trkpt>
      <trkpt lat="47.10256" lon="-2.08235">
        <ele>5</ele>
        <time>2020-10-25T15:58:47Z</time>
      </trkpt>
      <trkpt lat="47.10289" lon="-2.08278">
        <ele>5</ele>
        <time>2020-10-25T15:59:46Z</time>
      </trkpt>
      <trkpt lat="47.10324" lon="-2.08314">
        <ele>6</ele>
        <time>2020-10-25T16:00:43Z</time>
      </trkpt>
      <trkpt lat="47.10352" lon="-2.08368">
        <ele>7</ele>
        <time>2020-10-25T16:01:45Z</time>
      </trkpt>
      <trkpt lat="47.10363" lon="-2.08426">
        <ele>7</ele>
        <time>2020-10-25T16:02:39Z</time>
      </trkpt>
      <trkpt lat="47.10347" lon="-2.08496">
        <ele>4</ele>
        <time>2020-10-25T16:03:46Z</time>
      </trkpt>
      <trkpt lat="47.10369" lon="-2.08534">
        <ele>6</ele>
        <time>2020-10-25T16:04:32Z</time>
      </trkpt>
      <trkpt lat="47.10293" lon="-2.0855">
        <ele>1</ele>
        <time>2020-10-25T16:06:14Z</time>
      </trkpt>
      <trkpt lat="47.1037" lon="-2.08568">
        <ele>5</ele>
        <time>2020-10-25T16:07:58Z</time>
      </trkpt>
      <trkpt lat="47.1039" lon="-2.08586">
        <ele>7</ele>
        <time>2020-10-25T16:08:30Z</time>
      </trkpt>
      <trkpt lat="47.10396" lon="-2.0861">
        <ele>7</ele>
        <time>2020-10-25T16:08:53Z</time>
      </trkpt>
      <trkpt lat="47.10401" lon="-2.08648">
        <ele>7</ele>
        <time>2020-10-25T16:09:28Z</time>
      </trkpt>
      <trkpt lat="47.10404" lon="-2.08691">
        <ele>7</ele>
        <time>2020-10-25T16:10:07Z</time>
      </trkpt>
      <trkpt lat="47.10405" lon="-2.08716">
        <ele>7</ele>
        <time>2020-10-25T16:10:30Z</time>
      </trkpt>
      <trkpt lat="47.10401" lon="-2.08725">
        <ele>7</ele>
        <time>2020-10-25T16:10:40Z</time>
      </trkpt>
      <trkpt lat="47.1042" lon="-2.0876">
        <ele>9</ele>
        <time>2020-10-25T16:11:20Z</time>
      </trkpt>
      <trkpt lat="47.10386" lon="-2.08809">
        <ele>7</ele>
        <time>2020-10-25T16:12:24Z</time>
      </trkpt>
      <trkpt lat="47.10383" lon="-2.08829">
        <ele>7</ele>
        <time>2020-10-25T16:12:43Z</time>
      </trkpt>
      <trkpt lat="47.10393" lon="-2.08845">
        <ele>8</ele>
        <time>2020-10-25T16:13:02Z</time>
      </trkpt>
      <trkpt lat="47.10391" lon="-2.08857">
        <ele>7</ele>
        <time>2020-10-25T16:13:14Z</time>
      </trkpt>
      <trkpt lat="47.10384" lon="-2.08871">
        <ele>6</ele>
        <time>2020-10-25T16:13:29Z</time>
      </trkpt>
      <trkpt lat="47.10387" lon="-2.08887">
        <ele>6</ele>
        <time>2020-10-25T16:13:44Z</time>
      </trkpt>
      <trkpt lat="47.10403" lon="-2.0889">
        <ele>8</ele>
        <time>2020-10-25T16:14:06Z</time>
      </trkpt>
      <trkpt lat="47.10392" lon="-2.08904">
        <ele>7</ele>
        <time>2020-10-25T16:14:25Z</time>
      </trkpt>
      <trkpt lat="47.10388" lon="-2.08919">
        <ele>6</ele>
        <time>2020-10-25T16:14:40Z</time>
      </trkpt>
      <trkpt lat="47.1039" lon="-2.08945">
        <ele>6</ele>
        <time>2020-10-25T16:15:04Z</time>
      </trkpt>
      <trkpt lat="47.10387" lon="-2.08968">
        <ele>6</ele>
        <time>2020-10-25T16:15:25Z</time>
      </trkpt>
      <trkpt lat="47.10393" lon="-2.09005">
        <ele>7</ele>
        <time>2020-10-25T16:16:00Z</time>
      </trkpt>
      <trkpt lat="47.10401" lon="-2.09039">
        <ele>6</ele>
        <time>2020-10-25T16:16:32Z</time>
      </trkpt>
      <trkpt lat="47.10409" lon="-2.09059">
        <ele>5</ele>
        <time>2020-10-25T16:16:53Z</time>
      </trkpt>
      <trkpt lat="47.10433" lon="-2.09079">
        <ele>6</ele>
        <time>2020-10-25T16:17:30Z</time>
      </trkpt>
      <trkpt lat="47.10457" lon="-2.09089">
        <ele>8</ele>
        <time>2020-10-25T16:18:03Z</time>
      </trkpt>
      <trkpt lat="47.10482" lon="-2.09081">
        <ele>10</ele>
        <time>2020-10-25T16:18:38Z</time>
      </trkpt>
      <trkpt lat="47.10524" lon="-2.09146">
        <ele>12</ele>
        <time>2020-10-25T16:19:59Z</time>
      </trkpt>
      <trkpt lat="47.10528" lon="-2.09171">
        <ele>11</ele>
        <time>2020-10-25T16:20:22Z</time>
      </trkpt>
      <trkpt lat="47.10527" lon="-2.09197">
        <ele>11</ele>
        <time>2020-10-25T16:20:46Z</time>
      </trkpt>
      <trkpt lat="47.10517" lon="-2.09212">
        <ele>9</ele>
        <time>2020-10-25T16:21:05Z</time>
      </trkpt>
      <trkpt lat="47.10526" lon="-2.09235">
        <ele>10</ele>
        <time>2020-10-25T16:21:29Z</time>
      </trkpt>
      <trkpt lat="47.10521" lon="-2.09267">
        <ele>9</ele>
        <time>2020-10-25T16:21:59Z</time>
      </trkpt>
      <trkpt lat="47.10544" lon="-2.09311">
        <ele>11</ele>
        <time>2020-10-25T16:22:49Z</time>
      </trkpt>
      <trkpt lat="47.10545" lon="-2.09356">
        <ele>9</ele>
        <time>2020-10-25T16:23:30Z</time>
      </trkpt>
      <trkpt lat="47.10567" lon="-2.09376">
        <ele>10</ele>
        <time>2020-10-25T16:24:05Z</time>
      </trkpt>
      <trkpt lat="47.1057" lon="-2.09407">
        <ele>9</ele>
        <time>2020-10-25T16:24:33Z</time>
      </trkpt>
      <trkpt lat="47.10582" lon="-2.0943">
        <ele>8</ele>
        <time>2020-10-25T16:24:59Z</time>
      </trkpt>
      <trkpt lat="47.10577" lon="-2.09444">
        <ele>7</ele>
        <time>2020-10-25T16:25:14Z</time>
      </trkpt>
      <trkpt lat="47.10584" lon="-2.09457">
        <ele>7</ele>
        <time>2020-10-25T16:25:29Z</time>
      </trkpt>
      <trkpt lat="47.10609" lon="-2.09474">
        <ele>10</ele>
        <time>2020-10-25T16:26:06Z</time>
      </trkpt>
      <trkpt lat="47.10624" lon="-2.09526">
        <ele>9</ele>
        <time>2020-10-25T16:26:57Z</time>
      </trkpt>
      <trkpt lat="47.1065" lon="-2.0953">
        <ele>13</ele>
        <time>2020-10-25T16:27:32Z</time>
      </trkpt>
      <trkpt lat="47.10653" lon="-2.09571">
        <ele>10</ele>
        <time>2020-10-25T16:28:09Z</time>
      </trkpt>
      <trkpt lat="47.10644" lon="-2.09605">
        <ele>7</ele>
        <time>2020-10-25T16:28:42Z</time>
      </trkpt>
      <trkpt lat="47.10647" lon="-2.09632">
        <ele>7</ele>
        <time>2020-10-25T16:29:07Z</time>
      </trkpt>
      <trkpt lat="47.10676" lon="-2.0965">
        <ele>9</ele>
        <time>2020-10-25T16:29:49Z</time>
      </trkpt>
      <trkpt lat="47.10687" lon="-2.09682">
        <ele>10</ele>
        <time>2020-10-25T16:30:22Z</time>
      </trkpt>
      <trkpt lat="47.10698" lon="-2.09724">
        <ele>10</ele>
        <time>2020-10-25T16:31:03Z</time>
      </trkpt>
      <trkpt lat="47.10692" lon="-2.09777">
        <ele>9</ele>
        <time>2020-10-25T16:31:52Z</time>
      </trkpt>
      <trkpt lat="47.10708" lon="-2.09787">
        <ele>12</ele>
        <time>2020-10-25T16:32:15Z</time>
      </trkpt>
      <trkpt lat="47.10711" lon="-2.09821">
        <ele>13</ele>
        <time>2020-10-25T16:32:46Z</time>
      </trkpt>
      <trkpt lat="47.10693" lon="-2.09881">
        <ele>11</ele>
        <time>2020-10-25T16:33:45Z</time>
      </trkpt>
      <trkpt lat="47.10668" lon="-2.09944">
        <ele>7</ele>
        <time>2020-10-25T16:34:52Z</time>
      </trkpt>
      <trkpt lat="47.10664" lon="-2.10005">
        <ele>7</ele>
        <time>2020-10-25T16:35:47Z</time>
      </trkpt>
      <trkpt lat="47.1068" lon="-2.10052">
        <ele>8</ele>
        <time>2020-10-25T16:36:35Z</time>
      </trkpt>
      <trkpt lat="47.10689" lon="-2.10082">
        <ele>9</ele>
        <time>2020-10-25T16:37:05Z</time>
      </trkpt>
      <trkpt lat="47.10703" lon="-2.10114">
        <ele>11</ele>
        <time>2020-10-25T16:37:39Z</time>
      </trkpt>
      <trkpt lat="47.10689" lon="-2.10148">
        <ele>9</ele>
        <time>2020-10-25T16:38:15Z</time>
      </trkpt>
      <trkpt lat="47.10693" lon="-2.10163">
        <ele>10</ele>
        <time>2020-10-25T16:38:30Z</time>
      </trkpt>
      <trkpt lat="47.10711" lon="-2.10225">
        <ele>12</ele>
        <time>2020-10-25T16:39:31Z</time>
      </trkpt>
      <trkpt lat="47.10707" lon="-2.10284">
        <ele>12</ele>
        <time>2020-10-25T16:40:25Z</time>
      </trkpt>
      <trkpt lat="47.10686" lon="-2.10353">
        <ele>10</ele>
        <time>2020-10-25T16:41:34Z</time>
      </trkpt>
      <trkpt lat="47.10674" lon="-2.10432">
        <ele>7</ele>
        <time>2020-10-25T16:42:47Z</time>
      </trkpt>
      <trkpt lat="47.10663" lon="-2.10452">
        <ele>5</ele>
        <time>2020-10-25T16:43:11Z</time>
      </trkpt>
      <trkpt lat="47.10666" lon="-2.10464">
        <ele>5</ele>
        <time>2020-10-25T16:43:22Z</time>
      </trkpt>
      <trkpt lat="47.1067" lon="-2.10478">
        <ele>5</ele>
        <time>2020-10-25T16:43:36Z</time>
      </trkpt>
      <trkpt lat="47.10681" lon="-2.10492">
        <ele>6</ele>
        <time>2020-10-25T16:43:56Z</time>
      </trkpt>
      <trkpt lat="47.10673" lon="-2.10503">
        <ele>5</ele>
        <time>2020-10-25T16:44:10Z</time>
      </trkpt>
      <trkpt lat="47.10676" lon="-2.10537">
        <ele>4</ele>
        <time>2020-10-25T16:44:41Z</time>
      </trkpt>
      <trkpt lat="47.10692" lon="-2.1057">
        <ele>4</ele>
        <time>2020-10-25T16:45:18Z</time>
      </trkpt>
      <trkpt lat="47.10718" lon="-2.10595">
        <ele>5</ele>
        <time>2020-10-25T16:46:00Z</time>
      </trkpt>
      <trkpt lat="47.10742" lon="-2.10602">
        <ele>7</ele>
        <time>2020-10-25T16:46:32Z</time>
      </trkpt>
      <trkpt lat="47.10775" lon="-2.10639">
        <ele>7</ele>
        <time>2020-10-25T16:47:28Z</time>
      </trkpt>
      <trkpt lat="47.10803" lon="-2.10668">
        <ele>6</ele>
        <time>2020-10-25T16:48:13Z</time>
      </trkpt>
      <trkpt lat="47.10837" lon="-2.1071">
        <ele>5</ele>
        <time>2020-10-25T16:49:13Z</time>
      </trkpt>
      <trkpt lat="47.10852" lon="-2.10737">
        <ele>3</ele>
        <time>2020-10-25T16:49:44Z</time>
      </trkpt>
      <trkpt lat="47.10896" lon="-2.10724">
        <ele>7</ele>
        <time>2020-10-25T16:50:44Z</time>
      </trkpt>
      <trkpt lat="47.10933" lon="-2.10755">
        <ele>2</ele>
        <time>2020-10-25T16:51:41Z</time>
      </trkpt>
      <trkpt lat="47.10956" lon="-2.10727">
        <ele>8</ele>
        <time>2020-10-25T16:52:21Z</time>
      </trkpt>
      <trkpt lat="47.1099" lon="-2.10679">
        <ele>8</ele>
        <time>2020-10-25T16:53:24Z</time>
      </trkpt>
      <trkpt lat="47.10995" lon="-2.10612">
        <ele>10</ele>
        <time>2020-10-25T16:54:25Z</time>
      </trkpt>
      <trkpt lat="47.11028" lon="-2.10556">
        <ele>11</ele>
        <time>2020-10-25T16:55:32Z</time>
      </trkpt>
      <trkpt lat="47.11059" lon="-2.10522">
        <ele>9</ele>
        <time>2020-10-25T16:56:24Z</time>
      </trkpt>
      <trkpt lat="47.11081" lon="-2.1048">
        <ele>10</ele>
        <time>2020-10-25T16:57:12Z</time>
      </trkpt>
      <trkpt lat="47.11106" lon="-2.1042">
        <ele>15</ele>
        <time>2020-10-25T16:58:16Z</time>
      </trkpt>
      <trkpt lat="47.11124" lon="-2.10418">
        <ele>14</ele>
        <time>2020-10-25T16:58:40Z</time>
      </trkpt>
      <trkpt lat="47.1114" lon="-2.10437">
        <ele>11</ele>
        <time>2020-10-25T16:59:07Z</time>
      </trkpt>
      <trkpt lat="47.11185" lon="-2.10448">
        <ele>6</ele>
        <time>2020-10-25T17:00:08Z</time>
      </trkpt>
      <trkpt lat="47.11222" lon="-2.1042">
        <ele>6</ele>
        <time>2020-10-25T17:01:04Z</time>
      </trkpt>
      <trkpt lat="47.11228" lon="-2.10385">
        <ele>11</ele>
        <time>2020-10-25T17:01:37Z</time>
      </trkpt>
      <trkpt lat="47.11299" lon="-2.10355">
        <ele>9</ele>
        <time>2020-10-25T17:03:15Z</time>
      </trkpt>
      <trkpt lat="47.11345" lon="-2.10318">
        <ele>8</ele>
        <time>2020-10-25T17:04:25Z</time>
      </trkpt>
      <trkpt lat="47.11404" lon="-2.10223">
        <ele>7</ele>
        <time>2020-10-25T17:06:22Z</time>
      </trkpt>
      <trkpt lat="47.11423" lon="-2.10095">
        <ele>9</ele>
        <time>2020-10-25T17:08:21Z</time>
      </trkpt>
      <trkpt lat="47.11432" lon="-2.09975">
        <ele>7</ele>
        <time>2020-10-25T17:10:11Z</time>
      </trkpt>
      <trkpt lat="47.11459" lon="-2.09861">
        <ele>5</ele>
        <time>2020-10-25T17:12:00Z</time>
      </trkpt>
      <trkpt lat="47.1144" lon="-2.09775">
        <ele>5</ele>
        <time>2020-10-25T17:13:22Z</time>
      </trkpt>
    </trkseg>
  </trk>
</gpx>